Terminal Aerodrome Forecast
Issued by NWS

Home | Current Version | Previous Version | Graphics & Text | Print | Product List | Glossary Off
Versions: 1 2 3 4 5 6 7 8 9 10 11 12 13 14 15 16 17 18 19 20 21 22 23 24 25 26 27 28 29 30

000
FTUS43 KDDC 181136
TAFGCK
TAF
KGCK 181136Z 1812/1912 VRB06KT 3SM BR FEW140
      TEMPO 1812/1813 1SM BR
     FM181400 VRB06KT P6SM FEW140
     FM181600 22011KT P6SM SKC
     FM190000 18012KT P6SM SKC=

USA.gov is the U.S. government's official web portal to all federal, state and local government web resources and services.